sensor_id;sensor_type;location;lat;lon;timestamp;temperature;humidity
58447;DHT22;44240;51.840;7.258;2022-08-19T00:01:52;21.00;97.90
58447;DHT22;44240;51.840;7.258;2022-08-19T00:04:21;21.00;97.90
58447;DHT22;44240;51.840;7.258;2022-08-19T00:06:47;21.00;98.10
58447;DHT22;44240;51.840;7.258;2022-08-19T00:09:15;20.90;98.10
58447;DHT22;44240;51.840;7.258;2022-08-19T00:11:42;20.90;98.20
58447;DHT22;44240;51.840;7.258;2022-08-19T00:14:11;20.90;98.30
58447;DHT22;44240;51.840;7.258;2022-08-19T00:16:39;20.90;98.30
58447;DHT22;44240;51.840;7.258;2022-08-19T00:19:05;20.90;98.30
58447;DHT22;44240;51.840;7.258;2022-08-19T00:21:30;20.80;98.30
58447;DHT22;44240;51.840;7.258;2022-08-19T00:23:57;20.80;98.40
58447;DHT22;44240;51.840;7.258;2022-08-19T00:26:24;20.80;98.40
58447;DHT22;44240;51.840;7.258;2022-08-19T00:28:50;20.70;98.40
58447;DHT22;44240;51.840;7.258;2022-08-19T00:31:16;20.70;98.40
58447;DHT22;44240;51.840;7.258;2022-08-19T00:33:41;20.70;98.40
58447;DHT22;44240;51.840;7.258;2022-08-19T00:36:09;20.60;98.50
58447;DHT22;44240;51.840;7.258;2022-08-19T00:38:36;20.70;98.60
58447;DHT22;44240;51.840;7.258;2022-08-19T00:41:02;20.70;98.60
58447;DHT22;44240;51.840;7.258;2022-08-19T00:43:28;20.60;98.70
58447;DHT22;44240;51.840;7.258;2022-08-19T00:45:54;20.70;98.70
58447;DHT22;44240;51.840;7.258;2022-08-19T00:48:20;20.70;98.80
58447;DHT22;44240;51.840;7.258;2022-08-19T00:50:48;20.60;98.80
58447;DHT22;44240;51.840;7.258;2022-08-19T00:53:16;20.60;98.80
58447;DHT22;44240;51.840;7.258;2022-08-19T00:55:49;20.60;98.90
58447;DHT22;44240;51.840;7.258;2022-08-19T00:58:17;20.60;98.90
58447;DHT22;44240;51.840;7.258;2022-08-19T01:00:45;20.60;99.00
58447;DHT22;44240;51.840;7.258;2022-08-19T01:03:15;20.50;99.00
58447;DHT22;44240;51.840;7.258;2022-08-19T01:05:42;20.50;99.10
58447;DHT22;44240;51.840;7.258;2022-08-19T01:08:08;20.50;99.20
58447;DHT22;44240;51.840;7.258;2022-08-19T01:10:39;20.50;99.20
58447;DHT22;44240;51.840;7.258;2022-08-19T01:13:06;20.40;99.20
58447;DHT22;44240;51.840;7.258;2022-08-19T01:15:42;20.40;99.20
58447;DHT22;44240;51.840;7.258;2022-08-19T01:18:11;20.40;99.30
58447;DHT22;44240;51.840;7.258;2022-08-19T01:20:37;20.40;99.40
58447;DHT22;44240;51.840;7.258;2022-08-19T01:23:03;20.40;99.30
58447;DHT22;44240;51.840;7.258;2022-08-19T01:25:34;20.30;99.30
58447;DHT22;44240;51.840;7.258;2022-08-19T01:28:00;20.30;99.30
58447;DHT22;44240;51.840;7.258;2022-08-19T01:30:32;20.30;99.40
58447;DHT22;44240;51.840;7.258;2022-08-19T01:32:59;20.20;99.40
58447;DHT22;44240;51.840;7.258;2022-08-19T01:35:29;20.20;99.40
58447;DHT22;44240;51.840;7.258;2022-08-19T01:38:03;20.20;99.50
58447;DHT22;44240;51.840;7.258;2022-08-19T01:40:33;20.20;99.50
58447;DHT22;44240;51.840;7.258;2022-08-19T01:43:00;20.10;99.50
58447;DHT22;44240;51.840;7.258;2022-08-19T01:45:27;20.10;99.50
58447;DHT22;44240;51.840;7.258;2022-08-19T01:47:54;20.10;99.60
58447;DHT22;44240;51.840;7.258;2022-08-19T01:50:20;20.00;99.70
58447;DHT22;44240;51.840;7.258;2022-08-19T01:52:46;20.00;99.70
58447;DHT22;44240;51.840;7.258;2022-08-19T01:55:15;20.00;99.70
58447;DHT22;44240;51.840;7.258;2022-08-19T01:57:44;20.00;99.80
58447;DHT22;44240;51.840;7.258;2022-08-19T02:00:14;19.90;99.80
58447;DHT22;44240;51.840;7.258;2022-08-19T02:02:41;19.90;99.90
58447;DHT22;44240;51.840;7.258;2022-08-19T02:05:07;19.90;99.90
58447;DHT22;44240;51.840;7.258;2022-08-19T02:07:35;19.90;99.90
58447;DHT22;44240;51.840;7.258;2022-08-19T02:10:06;19.90;99.90
58447;DHT22;44240;51.840;7.258;2022-08-19T02:12:32;19.90;99.90
58447;DHT22;44240;51.840;7.258;2022-08-19T02:14:59;19.90;99.90
58447;DHT22;44240;51.840;7.258;2022-08-19T02:17:24;19.90;99.90
58447;DHT22;44240;51.840;7.258;2022-08-19T02:19:50;19.90;99.90
58447;DHT22;44240;51.840;7.258;2022-08-19T02:22:15;19.90;99.90
58447;DHT22;44240;51.840;7.258;2022-08-19T02:24:41;19.90;99.90
58447;DHT22;44240;51.840;7.258;2022-08-19T02:27:07;19.90;99.90
58447;DHT22;44240;51.840;7.258;2022-08-19T02:29:33;19.90;99.90
58447;DHT22;44240;51.840;7.258;2022-08-19T02:31:58;19.80;99.90
58447;DHT22;44240;51.840;7.258;2022-08-19T02:34:24;19.90;99.90
58447;DHT22;44240;51.840;7.258;2022-08-19T02:36:51;19.80;99.90
58447;DHT22;44240;51.840;7.258;2022-08-19T02:39:16;19.80;99.90
58447;DHT22;44240;51.840;7.258;2022-08-19T02:41:42;19.80;99.90
58447;DHT22;44240;51.840;7.258;2022-08-19T02:44:07;19.80;99.90
58447;DHT22;44240;51.840;7.258;2022-08-19T02:46:34;19.70;99.90
58447;DHT22;44240;51.840;7.258;2022-08-19T02:49:04;19.70;99.90
58447;DHT22;44240;51.840;7.258;2022-08-19T02:51:36;19.70;99.90
58447;DHT22;44240;51.840;7.258;2022-08-19T02:54:03;19.70;99.90
58447;DHT22;44240;51.840;7.258;2022-08-19T02:56:29;19.60;99.90
58447;DHT22;44240;51.840;7.258;2022-08-19T02:58:57;19.60;99.90
58447;DHT22;44240;51.840;7.258;2022-08-19T03:01:27;19.60;99.90
58447;DHT22;44240;51.840;7.258;2022-08-19T03:03:53;19.60;99.90
58447;DHT22;44240;51.840;7.258;2022-08-19T03:06:19;19.50;99.90
58447;DHT22;44240;51.840;7.258;2022-08-19T03:08:46;19.50;99.90
58447;DHT22;44240;51.840;7.258;2022-08-19T03:11:14;19.50;99.90
58447;DHT22;44240;51.840;7.258;2022-08-19T03:13:40;19.50;99.90
58447;DHT22;44240;51.840;7.258;2022-08-19T03:16:08;19.40;99.90
58447;DHT22;44240;51.840;7.258;2022-08-19T03:18:34;19.40;99.90
58447;DHT22;44240;51.840;7.258;2022-08-19T03:21:00;19.40;99.90
58447;DHT22;44240;51.840;7.258;2022-08-19T03:23:25;19.30;99.90
58447;DHT22;44240;51.840;7.258;2022-08-19T03:25:52;19.30;99.90
58447;DHT22;44240;51.840;7.258;2022-08-19T03:28:19;19.20;99.90
58447;DHT22;44240;51.840;7.258;2022-08-19T03:30:58;19.10;99.90
58447;DHT22;44240;51.840;7.258;2022-08-19T03:33:25;19.10;99.90
58447;DHT22;44240;51.840;7.258;2022-08-19T03:38:35;19.10;99.90
58447;DHT22;44240;51.840;7.258;2022-08-19T03:41:06;19.00;99.90
58447;DHT22;44240;51.840;7.258;2022-08-19T03:43:33;19.00;99.90
58447;DHT22;44240;51.840;7.258;2022-08-19T03:46:05;19.00;99.90
58447;DHT22;44240;51.840;7.258;2022-08-19T03:48:32;19.00;99.90
58447;DHT22;44240;51.840;7.258;2022-08-19T03:50:58;19.00;99.90
58447;DHT22;44240;51.840;7.258;2022-08-19T03:53:25;19.00;99.90
58447;DHT22;44240;51.840;7.258;2022-08-19T03:55:52;18.90;99.90
58447;DHT22;44240;51.840;7.258;2022-08-19T03:58:19;18.90;99.90
58447;DHT22;44240;51.840;7.258;2022-08-19T04:00:45;18.90;99.90
58447;DHT22;44240;51.840;7.258;2022-08-19T04:03:10;18.90;99.90
58447;DHT22;44240;51.840;7.258;2022-08-19T04:05:36;18.90;99.90
58447;DHT22;44240;51.840;7.258;2022-08-19T04:08:03;18.80;99.90
58447;DHT22;44240;51.840;7.258;2022-08-19T04:10:37;18.90;99.90
58447;DHT22;44240;51.840;7.258;2022-08-19T04:13:03;18.80;99.90
58447;DHT22;44240;51.840;7.258;2022-08-19T04:15:31;18.80;99.90
58447;DHT22;44240;51.840;7.258;2022-08-19T04:18:01;18.80;99.90
58447;DHT22;44240;51.840;7.258;2022-08-19T04:20:26;18.70;99.90
58447;DHT22;44240;51.840;7.258;2022-08-19T04:22:52;18.60;99.90
58447;DHT22;44240;51.840;7.258;2022-08-19T04:25:17;18.60;99.90
58447;DHT22;44240;51.840;7.258;2022-08-19T04:27:43;18.60;99.90
58447;DHT22;44240;51.840;7.258;2022-08-19T04:30:12;18.60;99.90
58447;DHT22;44240;51.840;7.258;2022-08-19T04:32:38;18.60;99.90
58447;DHT22;44240;51.840;7.258;2022-08-19T04:35:04;18.60;99.90
58447;DHT22;44240;51.840;7.258;2022-08-19T04:37:30;18.60;99.90
58447;DHT22;44240;51.840;7.258;2022-08-19T04:39:57;18.60;99.90
58447;DHT22;44240;51.840;7.258;2022-08-19T04:42:42;18.60;99.90
58447;DHT22;44240;51.840;7.258;2022-08-19T04:45:10;18.50;99.90
58447;DHT22;44240;51.840;7.258;2022-08-19T04:47:37;18.60;99.90
58447;DHT22;44240;51.840;7.258;2022-08-19T04:50:04;18.50;99.90
58447;DHT22;44240;51.840;7.258;2022-08-19T04:52:30;18.60;99.90
58447;DHT22;44240;51.840;7.258;2022-08-19T04:54:57;18.60;99.90
58447;DHT22;44240;51.840;7.258;2022-08-19T04:57:23;18.60;99.90
58447;DHT22;44240;51.840;7.258;2022-08-19T04:59:48;18.60;99.90
58447;DHT22;44240;51.840;7.258;2022-08-19T05:02:14;18.60;99.90
58447;DHT22;44240;51.840;7.258;2022-08-19T05:04:40;18.60;99.90
58447;DHT22;44240;51.840;7.258;2022-08-19T05:07:07;18.60;99.90
58447;DHT22;44240;51.840;7.258;2022-08-19T05:09:34;18.70;99.90
58447;DHT22;44240;51.840;7.258;2022-08-19T05:11:59;18.70;99.90
58447;DHT22;44240;51.840;7.258;2022-08-19T05:14:25;18.70;99.90
58447;DHT22;44240;51.840;7.258;2022-08-19T05:16:51;18.70;99.90
58447;DHT22;44240;51.840;7.258;2022-08-19T05:19:16;18.70;99.90
58447;DHT22;44240;51.840;7.258;2022-08-19T05:22:01;18.80;99.90
58447;DHT22;44240;51.840;7.258;2022-08-19T05:24:45;18.80;99.90
58447;DHT22;44240;51.840;7.258;2022-08-19T05:27:10;18.80;99.90
58447;DHT22;44240;51.840;7.258;2022-08-19T05:29:36;18.80;99.90
58447;DHT22;44240;51.840;7.258;2022-08-19T05:32:04;18.90;99.90
58447;DHT22;44240;51.840;7.258;2022-08-19T05:34:31;18.90;99.90
58447;DHT22;44240;51.840;7.258;2022-08-19T05:36:58;19.00;99.90
58447;DHT22;44240;51.840;7.258;2022-08-19T05:39:28;19.00;99.90
58447;DHT22;44240;51.840;7.258;2022-08-19T05:41:59;19.10;99.90
58447;DHT22;44240;51.840;7.258;2022-08-19T05:44:26;19.20;99.90
58447;DHT22;44240;51.840;7.258;2022-08-19T05:46:52;19.20;99.90
58447;DHT22;44240;51.840;7.258;2022-08-19T05:49:20;19.30;99.90
58447;DHT22;44240;51.840;7.258;2022-08-19T05:51:46;19.30;99.90
58447;DHT22;44240;51.840;7.258;2022-08-19T05:54:12;19.40;99.90
58447;DHT22;44240;51.840;7.258;2022-08-19T05:56:42;19.40;99.90
58447;DHT22;44240;51.840;7.258;2022-08-19T05:59:09;19.40;99.90
58447;DHT22;44240;51.840;7.258;2022-08-19T06:01:38;19.50;99.90
58447;DHT22;44240;51.840;7.258;2022-08-19T06:04:04;19.50;99.90
58447;DHT22;44240;51.840;7.258;2022-08-19T06:06:30;19.50;99.90
58447;DHT22;44240;51.840;7.258;2022-08-19T06:08:55;19.50;99.90
58447;DHT22;44240;51.840;7.258;2022-08-19T06:11:24;19.60;99.90
58447;DHT22;44240;51.840;7.258;2022-08-19T06:13:53;19.70;99.90
58447;DHT22;44240;51.840;7.258;2022-08-19T06:16:20;19.80;99.90
58447;DHT22;44240;51.840;7.258;2022-08-19T06:18:48;19.80;99.90
58447;DHT22;44240;51.840;7.258;2022-08-19T06:21:13;19.80;99.90
58447;DHT22;44240;51.840;7.258;2022-08-19T06:23:39;19.90;99.90
58447;DHT22;44240;51.840;7.258;2022-08-19T06:26:05;20.00;99.90
58447;DHT22;44240;51.840;7.258;2022-08-19T06:28:31;20.10;99.90
58447;DHT22;44240;51.840;7.258;2022-08-19T06:30:58;20.20;99.90
58447;DHT22;44240;51.840;7.258;2022-08-19T06:33:23;20.30;99.90
58447;DHT22;44240;51.840;7.258;2022-08-19T06:35:49;20.40;99.90
58447;DHT22;44240;51.840;7.258;2022-08-19T06:38:14;20.50;99.90
58447;DHT22;44240;51.840;7.258;2022-08-19T06:40:40;20.60;99.90
58447;DHT22;44240;51.840;7.258;2022-08-19T06:43:06;20.60;99.90
58447;DHT22;44240;51.840;7.258;2022-08-19T06:45:31;20.60;99.90
58447;DHT22;44240;51.840;7.258;2022-08-19T06:47:57;20.60;99.90
58447;DHT22;44240;51.840;7.258;2022-08-19T06:50:23;20.70;99.90
58447;DHT22;44240;51.840;7.258;2022-08-19T06:52:49;20.70;99.90
58447;DHT22;44240;51.840;7.258;2022-08-19T06:55:15;20.80;99.90
58447;DHT22;44240;51.840;7.258;2022-08-19T06:57:41;20.90;99.90
58447;DHT22;44240;51.840;7.258;2022-08-19T07:00:08;21.00;99.90
58447;DHT22;44240;51.840;7.258;2022-08-19T07:02:37;21.00;99.90
58447;DHT22;44240;51.840;7.258;2022-08-19T07:05:02;21.10;99.90
58447;DHT22;44240;51.840;7.258;2022-08-19T07:07:30;21.30;99.90
58447;DHT22;44240;51.840;7.258;2022-08-19T07:09:56;21.40;99.90
58447;DHT22;44240;51.840;7.258;2022-08-19T07:12:22;21.50;99.90
58447;DHT22;44240;51.840;7.258;2022-08-19T07:14:47;21.70;99.90
58447;DHT22;44240;51.840;7.258;2022-08-19T07:17:14;21.80;99.90
58447;DHT22;44240;51.840;7.258;2022-08-19T07:19:41;21.90;99.90
58447;DHT22;44240;51.840;7.258;2022-08-19T07:22:08;22.00;99.90
58447;DHT22;44240;51.840;7.258;2022-08-19T07:24:35;22.10;99.90
58447;DHT22;44240;51.840;7.258;2022-08-19T07:27:03;22.20;99.90
58447;DHT22;44240;51.840;7.258;2022-08-19T07:29:31;22.30;99.90
58447;DHT22;44240;51.840;7.258;2022-08-19T07:31:58;22.40;99.90
58447;DHT22;44240;51.840;7.258;2022-08-19T07:34:26;22.50;99.90
58447;DHT22;44240;51.840;7.258;2022-08-19T07:36:52;22.60;99.90
58447;DHT22;44240;51.840;7.258;2022-08-19T07:39:22;22.70;99.90
58447;DHT22;44240;51.840;7.258;2022-08-19T07:41:48;22.90;99.90
58447;DHT22;44240;51.840;7.258;2022-08-19T07:44:16;23.00;99.90
58447;DHT22;44240;51.840;7.258;2022-08-19T07:46:45;23.00;99.60
58447;DHT22;44240;51.840;7.258;2022-08-19T07:49:12;23.10;99.60
58447;DHT22;44240;51.840;7.258;2022-08-19T07:51:43;23.30;99.60
58447;DHT22;44240;51.840;7.258;2022-08-19T07:54:08;23.50;99.50
58447;DHT22;44240;51.840;7.258;2022-08-19T07:56:34;23.60;99.10
58447;DHT22;44240;51.840;7.258;2022-08-19T07:59:00;23.70;98.90
58447;DHT22;44240;51.840;7.258;2022-08-19T08:01:26;23.70;98.80
58447;DHT22;44240;51.840;7.258;2022-08-19T08:03:54;23.70;98.80
58447;DHT22;44240;51.840;7.258;2022-08-19T08:06:39;23.60;98.20
58447;DHT22;44240;51.840;7.258;2022-08-19T08:09:26;23.60;98.30
58447;DHT22;44240;51.840;7.258;2022-08-19T08:11:56;23.60;98.20
58447;DHT22;44240;51.840;7.258;2022-08-19T08:14:26;23.60;98.10
58447;DHT22;44240;51.840;7.258;2022-08-19T08:16:52;23.60;98.10
58447;DHT22;44240;51.840;7.258;2022-08-19T08:19:22;23.60;98.20
58447;DHT22;44240;51.840;7.258;2022-08-19T08:21:49;23.70;98.00
58447;DHT22;44240;51.840;7.258;2022-08-19T08:24:15;23.80;98.10
58447;DHT22;44240;51.840;7.258;2022-08-19T08:26:42;23.90;97.60
58447;DHT22;44240;51.840;7.258;2022-08-19T08:29:10;23.90;97.40
58447;DHT22;44240;51.840;7.258;2022-08-19T08:31:39;24.00;97.60
58447;DHT22;44240;51.840;7.258;2022-08-19T08:34:05;24.00;97.40
58447;DHT22;44240;51.840;7.258;2022-08-19T08:36:31;24.10;97.50
58447;DHT22;44240;51.840;7.258;2022-08-19T08:38:59;24.20;97.20
58447;DHT22;44240;51.840;7.258;2022-08-19T08:44:17;24.40;96.50
58447;DHT22;44240;51.840;7.258;2022-08-19T08:46:49;24.40;96.40
58447;DHT22;44240;51.840;7.258;2022-08-19T08:49:29;24.50;96.00
58447;DHT22;44240;51.840;7.258;2022-08-19T08:52:09;24.60;95.40
58447;DHT22;44240;51.840;7.258;2022-08-19T08:54:42;24.80;94.50
58447;DHT22;44240;51.840;7.258;2022-08-19T08:59:54;25.00;92.90
58447;DHT22;44240;51.840;7.258;2022-08-19T09:02:21;25.20;92.60
58447;DHT22;44240;51.840;7.258;2022-08-19T09:04:46;25.20;92.40
58447;DHT22;44240;51.840;7.258;2022-08-19T09:10:14;25.20;91.90
58447;DHT22;44240;51.840;7.258;2022-08-19T09:12:54;25.10;91.40
58447;DHT22;44240;51.840;7.258;2022-08-19T09:15:29;25.00;91.50
58447;DHT22;44240;51.840;7.258;2022-08-19T09:18:01;25.00;91.70
58447;DHT22;44240;51.840;7.258;2022-08-19T09:20:27;25.20;91.90
58447;DHT22;44240;51.840;7.258;2022-08-19T09:22:53;25.30;91.80
58447;DHT22;44240;51.840;7.258;2022-08-19T09:25:21;25.40;91.80
58447;DHT22;44240;51.840;7.258;2022-08-19T09:27:49;25.50;91.60
58447;DHT22;44240;51.840;7.258;2022-08-19T09:30:19;25.60;91.10
58447;DHT22;44240;51.840;7.258;2022-08-19T09:32:47;25.60;91.20
58447;DHT22;44240;51.840;7.258;2022-08-19T09:35:14;25.60;91.40
58447;DHT22;44240;51.840;7.258;2022-08-19T09:37:40;25.70;91.60
58447;DHT22;44240;51.840;7.258;2022-08-19T09:40:07;25.80;91.20
58447;DHT22;44240;51.840;7.258;2022-08-19T09:42:32;25.80;91.10
58447;DHT22;44240;51.840;7.258;2022-08-19T09:44:59;25.80;91.10
58447;DHT22;44240;51.840;7.258;2022-08-19T09:47:25;25.70;90.80
58447;DHT22;44240;51.840;7.258;2022-08-19T09:49:50;25.70;90.90
58447;DHT22;44240;51.840;7.258;2022-08-19T09:52:16;25.80;90.80
58447;DHT22;44240;51.840;7.258;2022-08-19T09:54:42;25.90;90.70
58447;DHT22;44240;51.840;7.258;2022-08-19T09:57:07;26.00;89.80
58447;DHT22;44240;51.840;7.258;2022-08-19T09:59:33;26.20;89.60
58447;DHT22;44240;51.840;7.258;2022-08-19T10:01:59;26.30;89.50
58447;DHT22;44240;51.840;7.258;2022-08-19T10:04:24;26.40;89.20
58447;DHT22;44240;51.840;7.258;2022-08-19T10:07:10;26.40;89.00
58447;DHT22;44240;51.840;7.258;2022-08-19T10:09:36;26.30;88.90
58447;DHT22;44240;51.840;7.258;2022-08-19T10:12:03;26.30;89.10
58447;DHT22;44240;51.840;7.258;2022-08-19T10:14:30;26.40;88.40
58447;DHT22;44240;51.840;7.258;2022-08-19T10:16:55;26.50;87.80
58447;DHT22;44240;51.840;7.258;2022-08-19T10:19:21;26.60;87.10
58447;DHT22;44240;51.840;7.258;2022-08-19T10:21:47;26.50;87.50
58447;DHT22;44240;51.840;7.258;2022-08-19T10:24:12;26.50;87.20
58447;DHT22;44240;51.840;7.258;2022-08-19T10:26:40;26.40;87.80
58447;DHT22;44240;51.840;7.258;2022-08-19T10:29:09;26.30;87.70
58447;DHT22;44240;51.840;7.258;2022-08-19T10:31:37;26.30;88.20
58447;DHT22;44240;51.840;7.258;2022-08-19T10:34:02;26.30;88.30
58447;DHT22;44240;51.840;7.258;2022-08-19T10:36:33;26.30;88.30
58447;DHT22;44240;51.840;7.258;2022-08-19T10:39:05;26.30;88.60
58447;DHT22;44240;51.840;7.258;2022-08-19T10:41:33;26.30;87.10
58447;DHT22;44240;51.840;7.258;2022-08-19T10:44:05;26.30;86.80
58447;DHT22;44240;51.840;7.258;2022-08-19T10:46:33;26.30;87.00
58447;DHT22;44240;51.840;7.258;2022-08-19T10:49:00;26.30;86.40
58447;DHT22;44240;51.840;7.258;2022-08-19T10:51:26;26.40;86.20
58447;DHT22;44240;51.840;7.258;2022-08-19T10:54:10;26.50;85.10
58447;DHT22;44240;51.840;7.258;2022-08-19T10:56:36;26.50;84.80
58447;DHT22;44240;51.840;7.258;2022-08-19T10:59:19;26.60;84.60
58447;DHT22;44240;51.840;7.258;2022-08-19T11:01:46;26.70;84.60
58447;DHT22;44240;51.840;7.258;2022-08-19T11:04:13;26.70;84.50
58447;DHT22;44240;51.840;7.258;2022-08-19T11:06:39;26.80;84.40
58447;DHT22;44240;51.840;7.258;2022-08-19T11:09:06;26.80;84.50
58447;DHT22;44240;51.840;7.258;2022-08-19T11:11:31;26.80;83.90
58447;DHT22;44240;51.840;7.258;2022-08-19T11:14:17;26.80;84.60
58447;DHT22;44240;51.840;7.258;2022-08-19T11:16:50;26.90;83.40
58447;DHT22;44240;51.840;7.258;2022-08-19T11:19:17;26.90;84.70
58447;DHT22;44240;51.840;7.258;2022-08-19T11:21:46;26.90;81.80
58447;DHT22;44240;51.840;7.258;2022-08-19T11:24:18;26.90;82.50
58447;DHT22;44240;51.840;7.258;2022-08-19T11:26:45;26.90;83.20
58447;DHT22;44240;51.840;7.258;2022-08-19T11:29:12;27.00;83.80
58447;DHT22;44240;51.840;7.258;2022-08-19T11:31:40;27.00;83.60
58447;DHT22;44240;51.840;7.258;2022-08-19T11:34:10;27.00;83.70
58447;DHT22;44240;51.840;7.258;2022-08-19T11:36:38;27.00;81.80
58447;DHT22;44240;51.840;7.258;2022-08-19T11:39:06;27.00;82.30
58447;DHT22;44240;51.840;7.258;2022-08-19T11:41:32;27.00;82.00
58447;DHT22;44240;51.840;7.258;2022-08-19T11:43:57;27.10;82.30
58447;DHT22;44240;51.840;7.258;2022-08-19T11:46:24;27.00;81.10
58447;DHT22;44240;51.840;7.258;2022-08-19T11:48:50;27.00;80.70
58447;DHT22;44240;51.840;7.258;2022-08-19T11:51:19;26.90;80.10
58447;DHT22;44240;51.840;7.258;2022-08-19T11:53:45;26.90;79.50
58447;DHT22;44240;51.840;7.258;2022-08-19T11:56:11;26.90;79.20
58447;DHT22;44240;51.840;7.258;2022-08-19T11:58:37;27.00;79.40
58447;DHT22;44240;51.840;7.258;2022-08-19T12:01:08;27.10;77.90
58447;DHT22;44240;51.840;7.258;2022-08-19T12:03:34;27.20;77.60
58447;DHT22;44240;51.840;7.258;2022-08-19T12:06:07;27.30;78.10
58447;DHT22;44240;51.840;7.258;2022-08-19T12:08:32;27.40;78.90
58447;DHT22;44240;51.840;7.258;2022-08-19T12:10:58;27.40;77.90
58447;DHT22;44240;51.840;7.258;2022-08-19T12:13:27;27.40;77.30
58447;DHT22;44240;51.840;7.258;2022-08-19T12:15:53;27.40;77.30
58447;DHT22;44240;51.840;7.258;2022-08-19T12:18:19;27.40;76.00
58447;DHT22;44240;51.840;7.258;2022-08-19T12:20:45;27.40;76.80
58447;DHT22;44240;51.840;7.258;2022-08-19T12:23:11;27.40;77.00
58447;DHT22;44240;51.840;7.258;2022-08-19T12:25:42;27.50;77.70
58447;DHT22;44240;51.840;7.258;2022-08-19T12:28:13;27.50;77.70
58447;DHT22;44240;51.840;7.258;2022-08-19T12:30:38;27.60;77.10
58447;DHT22;44240;51.840;7.258;2022-08-19T12:33:04;27.60;77.30
58447;DHT22;44240;51.840;7.258;2022-08-19T12:35:29;27.70;77.30
58447;DHT22;44240;51.840;7.258;2022-08-19T12:37:56;27.70;77.70
58447;DHT22;44240;51.840;7.258;2022-08-19T12:40:21;27.80;76.40
58447;DHT22;44240;51.840;7.258;2022-08-19T12:42:47;27.90;75.90
58447;DHT22;44240;51.840;7.258;2022-08-19T12:45:14;27.90;75.10
58447;DHT22;44240;51.840;7.258;2022-08-19T12:47:40;28.00;75.10
58447;DHT22;44240;51.840;7.258;2022-08-19T12:50:06;28.10;74.90
58447;DHT22;44240;51.840;7.258;2022-08-19T12:52:35;28.20;74.90
58447;DHT22;44240;51.840;7.258;2022-08-19T12:55:03;28.30;75.30
58447;DHT22;44240;51.840;7.258;2022-08-19T12:57:30;28.40;74.90
58447;DHT22;44240;51.840;7.258;2022-08-19T12:59:59;28.40;73.90
58447;DHT22;44240;51.840;7.258;2022-08-19T13:02:25;28.40;73.50
58447;DHT22;44240;51.840;7.258;2022-08-19T13:04:51;28.50;73.50
58447;DHT22;44240;51.840;7.258;2022-08-19T13:07:17;28.50;72.60
58447;DHT22;44240;51.840;7.258;2022-08-19T13:09:42;28.50;71.30
58447;DHT22;44240;51.840;7.258;2022-08-19T13:12:08;28.60;71.10
58447;DHT22;44240;51.840;7.258;2022-08-19T13:14:38;28.60;71.30
58447;DHT22;44240;51.840;7.258;2022-08-19T13:17:06;28.60;71.20
58447;DHT22;44240;51.840;7.258;2022-08-19T13:19:32;28.60;71.30
58447;DHT22;44240;51.840;7.258;2022-08-19T13:21:57;28.60;71.80
58447;DHT22;44240;51.840;7.258;2022-08-19T13:24:24;28.60;71.30
58447;DHT22;44240;51.840;7.258;2022-08-19T13:26:49;28.60;71.50
58447;DHT22;44240;51.840;7.258;2022-08-19T13:29:15;28.60;71.50
58447;DHT22;44240;51.840;7.258;2022-08-19T13:31:59;28.50;71.10
58447;DHT22;44240;51.840;7.258;2022-08-19T13:34:43;28.50;70.50
58447;DHT22;44240;51.840;7.258;2022-08-19T13:37:09;28.60;70.20
58447;DHT22;44240;51.840;7.258;2022-08-19T13:39:35;28.80;66.90
58447;DHT22;44240;51.840;7.258;2022-08-19T13:42:01;28.90;67.40
58447;DHT22;44240;51.840;7.258;2022-08-19T13:44:27;29.00;67.50
58447;DHT22;44240;51.840;7.258;2022-08-19T13:46:55;29.10;67.00
58447;DHT22;44240;51.840;7.258;2022-08-19T13:49:27;29.20;67.00
58447;DHT22;44240;51.840;7.258;2022-08-19T13:51:56;29.30;66.70
58447;DHT22;44240;51.840;7.258;2022-08-19T13:54:21;29.50;67.50
58447;DHT22;44240;51.840;7.258;2022-08-19T13:56:47;29.70;66.10
58447;DHT22;44240;51.840;7.258;2022-08-19T13:59:13;29.70;65.20
58447;DHT22;44240;51.840;7.258;2022-08-19T14:01:39;29.80;64.10
58447;DHT22;44240;51.840;7.258;2022-08-19T14:04:05;29.80;64.60
58447;DHT22;44240;51.840;7.258;2022-08-19T14:06:32;29.90;64.90
58447;DHT22;44240;51.840;7.258;2022-08-19T14:08:58;30.00;64.30
58447;DHT22;44240;51.840;7.258;2022-08-19T14:11:23;30.10;64.10
58447;DHT22;44240;51.840;7.258;2022-08-19T14:13:50;30.20;63.70
58447;DHT22;44240;51.840;7.258;2022-08-19T14:16:16;30.10;63.60
58447;DHT22;44240;51.840;7.258;2022-08-19T14:18:41;30.10;63.70
58447;DHT22;44240;51.840;7.258;2022-08-19T14:21:08;30.20;63.60
58447;DHT22;44240;51.840;7.258;2022-08-19T14:23:39;30.20;63.30
58447;DHT22;44240;51.840;7.258;2022-08-19T14:26:07;30.20;64.00
58447;DHT22;44240;51.840;7.258;2022-08-19T14:28:33;30.30;63.60
58447;DHT22;44240;51.840;7.258;2022-08-19T14:30:59;30.40;63.00
58447;DHT22;44240;51.840;7.258;2022-08-19T14:33:24;30.40;62.60
58447;DHT22;44240;51.840;7.258;2022-08-19T14:35:50;30.30;62.90
58447;DHT22;44240;51.840;7.258;2022-08-19T14:38:17;30.30;63.10
58447;DHT22;44240;51.840;7.258;2022-08-19T14:40:43;30.30;63.20
58447;DHT22;44240;51.840;7.258;2022-08-19T14:43:09;30.30;62.90
58447;DHT22;44240;51.840;7.258;2022-08-19T14:45:37;30.40;62.80
58447;DHT22;44240;51.840;7.258;2022-08-19T14:48:07;30.50;62.50
58447;DHT22;44240;51.840;7.258;2022-08-19T14:50:34;30.50;61.80
58447;DHT22;44240;51.840;7.258;2022-08-19T14:53:02;30.40;61.60
58447;DHT22;44240;51.840;7.258;2022-08-19T14:55:29;30.30;62.60
58447;DHT22;44240;51.840;7.258;2022-08-19T14:57:55;30.30;62.90
58447;DHT22;44240;51.840;7.258;2022-08-19T15:00:21;30.40;63.00
58447;DHT22;44240;51.840;7.258;2022-08-19T15:02:48;30.50;62.60
58447;DHT22;44240;51.840;7.258;2022-08-19T15:05:13;30.50;62.90
58447;DHT22;44240;51.840;7.258;2022-08-19T15:07:39;30.50;62.80
58447;DHT22;44240;51.840;7.258;2022-08-19T15:10:07;30.50;63.20
58447;DHT22;44240;51.840;7.258;2022-08-19T15:12:35;30.50;63.00
58447;DHT22;44240;51.840;7.258;2022-08-19T15:15:01;30.60;64.00
58447;DHT22;44240;51.840;7.258;2022-08-19T15:17:28;30.70;63.70
58447;DHT22;44240;51.840;7.258;2022-08-19T15:19:55;30.60;63.60
58447;DHT22;44240;51.840;7.258;2022-08-19T15:22:21;30.50;63.60
58447;DHT22;44240;51.840;7.258;2022-08-19T15:24:47;30.30;63.50
58447;DHT22;44240;51.840;7.258;2022-08-19T15:27:13;30.20;63.80
58447;DHT22;44240;51.840;7.258;2022-08-19T15:29:39;30.10;63.60
58447;DHT22;44240;51.840;7.258;2022-08-19T15:32:06;29.90;63.50
58447;DHT22;44240;51.840;7.258;2022-08-19T15:34:33;29.80;62.90
58447;DHT22;44240;51.840;7.258;2022-08-19T15:37:00;29.60;63.80
58447;DHT22;44240;51.840;7.258;2022-08-19T15:39:26;29.50;63.40
58447;DHT22;44240;51.840;7.258;2022-08-19T15:41:51;29.40;63.80
58447;DHT22;44240;51.840;7.258;2022-08-19T15:44:18;29.30;63.80